createdAt,value
2022-10-17T00:01:20.247Z,100.00
2022-10-17T00:04:36.391Z,100.00
2022-10-17T00:07:52.360Z,100.00
2022-10-17T00:11:12.157Z,100.00
2022-10-17T00:14:30.708Z,100.00
2022-10-17T00:17:47.349Z,100.00
2022-10-17T00:21:04.674Z,100.00
2022-10-17T00:24:22.355Z,100.00
2022-10-17T00:27:39.801Z,100.00
2022-10-17T00:31:05.107Z,100.00
2022-10-17T00:34:22.720Z,100.00
2022-10-17T00:37:43.247Z,100.00
2022-10-17T00:40:59.315Z,100.00
2022-10-17T00:44:48.164Z,100.00
2022-10-17T00:48:11.390Z,100.00
2022-10-17T00:51:34.463Z,100.00
2022-10-17T00:54:55.153Z,100.00
2022-10-17T00:58:12.778Z,100.00
2022-10-17T01:01:31.982Z,100.00
2022-10-17T01:04:51.526Z,100.00
2022-10-17T01:08:05.075Z,100.00
2022-10-17T01:11:31.988Z,100.00
2022-10-17T01:14:55.388Z,100.00
2022-10-17T01:18:21.411Z,100.00
2022-10-17T01:21:57.334Z,100.00
2022-10-17T01:25:32.251Z,100.00
2022-10-17T01:29:33.484Z,100.00
2022-10-17T01:32:55.103Z,100.00
2022-10-17T01:36:16.166Z,100.00
2022-10-17T01:39:38.498Z,100.00
2022-10-17T01:43:01.287Z,100.00
2022-10-17T01:46:23.794Z,100.00
2022-10-17T01:49:43.175Z,100.00
2022-10-17T01:53:05.173Z,100.00
2022-10-17T01:56:25.034Z,100.00
2022-10-17T01:59:45.748Z,100.00
2022-10-17T02:03:06.033Z,100.00
2022-10-17T02:06:22.106Z,100.00
2022-10-17T02:09:38.471Z,100.00
2022-10-17T02:13:01.135Z,100.00
2022-10-17T02:16:33.316Z,100.00
2022-10-17T02:20:03.320Z,100.00
2022-10-17T02:23:24.725Z,100.00
2022-10-17T02:26:46.812Z,100.00
2022-10-17T02:30:11.885Z,100.00
2022-10-17T02:33:33.584Z,100.00
2022-10-17T02:36:54.784Z,100.00
2022-10-17T02:40:15.050Z,100.00
2022-10-17T02:43:32.022Z,100.00
2022-10-17T02:46:56.075Z,100.00
2022-10-17T02:50:13.387Z,100.00
2022-10-17T02:53:35.984Z,100.00
2022-10-17T02:56:58.469Z,100.00
2022-10-17T03:00:24.661Z,100.00
2022-10-17T03:03:42.411Z,100.00
2022-10-17T03:06:58.893Z,100.00
2022-10-17T03:10:16.045Z,100.00
2022-10-17T03:13:34.958Z,100.00
2022-10-17T03:16:50.431Z,100.00
2022-10-17T03:20:07.007Z,100.00
2022-10-17T03:23:22.990Z,100.00
2022-10-17T03:26:41.377Z,100.00
2022-10-17T03:29:57.477Z,100.00
2022-10-17T03:33:13.508Z,100.00
2022-10-17T03:36:30.052Z,100.00
2022-10-17T03:39:45.980Z,100.00
2022-10-17T03:43:02.363Z,100.00
2022-10-17T03:49:34.403Z,100.00
2022-10-17T03:52:54.070Z,100.00
2022-10-17T03:56:22.071Z,100.00
2022-10-17T03:59:40.598Z,100.00
2022-10-17T04:02:58.481Z,100.00
2022-10-17T04:06:18.954Z,100.00
2022-10-17T04:09:34.967Z,100.00
2022-10-17T04:13:02.037Z,100.00
2022-10-17T04:16:21.899Z,100.00
2022-10-17T04:19:40.693Z,100.00
2022-10-17T04:22:57.076Z,100.00
2022-10-17T04:26:14.603Z,100.00
2022-10-17T04:29:31.971Z,100.00
2022-10-17T04:32:55.769Z,100.00
2022-10-17T04:36:18.095Z,100.00
2022-10-17T04:39:34.924Z,100.00
2022-10-17T04:42:51.385Z,100.00
2022-10-17T04:46:22.694Z,100.00
2022-10-17T04:49:38.765Z,100.00
2022-10-17T04:52:56.873Z,100.00
2022-10-17T04:56:20.002Z,100.00
2022-10-17T04:59:36.519Z,100.00
2022-10-17T05:03:10.220Z,100.00
2022-10-17T05:06:29.252Z,100.00
2022-10-17T05:10:03.488Z,100.00
2022-10-17T05:13:21.380Z,100.00
2022-10-17T05:16:39.472Z,100.00
2022-10-17T05:19:56.664Z,100.00
2022-10-17T05:23:13.326Z,100.00
2022-10-17T05:26:33.442Z,100.00
2022-10-17T05:29:53.615Z,100.00
2022-10-17T05:33:12.148Z,100.00
2022-10-17T05:36:29.331Z,100.00
2022-10-17T05:39:50.627Z,100.00
2022-10-17T05:43:04.600Z,100.00
2022-10-17T05:46:21.364Z,100.00
2022-10-17T05:49:48.357Z,100.00
2022-10-17T05:52:56.234Z,100.00
2022-10-17T05:56:18.294Z,100.00
2022-10-17T05:59:36.626Z,100.00
2022-10-17T06:02:58.582Z,100.00
2022-10-17T06:06:18.220Z,100.00
2022-10-17T06:09:36.382Z,100.00
2022-10-17T06:12:52.886Z,100.00
2022-10-17T06:16:09.444Z,100.00
2022-10-17T06:19:25.854Z,100.00
2022-10-17T06:22:43.992Z,100.00
2022-10-17T06:26:01.832Z,100.00
2022-10-17T06:29:19.231Z,100.00
2022-10-17T06:32:39.911Z,100.00
2022-10-17T06:36:01.037Z,100.00
2022-10-17T06:39:19.373Z,100.00
2022-10-17T06:42:37.109Z,100.00
2022-10-17T06:46:11.843Z,100.00
2022-10-17T06:49:30.923Z,100.00
2022-10-17T06:52:49.258Z,100.00
2022-10-17T06:56:23.845Z,100.00
2022-10-17T06:59:45.528Z,100.00
2022-10-17T07:03:04.915Z,100.00
2022-10-17T07:06:25.169Z,100.00
2022-10-17T07:09:45.963Z,100.00
2022-10-17T07:13:03.565Z,100.00
2022-10-17T07:16:23.049Z,100.00
2022-10-17T07:19:41.107Z,100.00
2022-10-17T07:22:58.247Z,100.00
2022-10-17T07:26:20.898Z,99.87
2022-10-17T07:29:40.054Z,100.00
2022-10-17T07:33:00.210Z,100.00
2022-10-17T07:36:25.080Z,100.00
2022-10-17T07:39:43.645Z,100.00
2022-10-17T07:43:00.883Z,100.00
2022-10-17T07:46:20.140Z,100.00
2022-10-17T07:49:36.412Z,100.00
2022-10-17T07:52:55.044Z,100.00
2022-10-17T07:56:15.215Z,100.00
2022-10-17T07:59:31.504Z,100.00
2022-10-17T08:02:47.591Z,100.00
2022-10-17T08:06:09.132Z,100.00
2022-10-17T08:09:25.523Z,100.00
2022-10-17T08:12:41.945Z,100.00
2022-10-17T08:15:58.507Z,100.00
2022-10-17T08:19:15.221Z,100.00
2022-10-17T08:22:32.182Z,100.00
2022-10-17T08:25:49.453Z,100.00
2022-10-17T08:29:08.634Z,100.00
2022-10-17T08:32:26.715Z,100.00
2022-10-17T08:35:43.132Z,100.00
2022-10-17T08:38:59.413Z,100.00
2022-10-17T08:42:31.528Z,100.00
2022-10-17T08:45:54.901Z,100.00
2022-10-17T08:49:15.744Z,100.00
2022-10-17T08:52:38.654Z,100.00
2022-10-17T08:55:57.706Z,100.00
2022-10-17T08:59:22.526Z,100.00
2022-10-17T09:02:52.483Z,100.00
2022-10-17T09:06:19.996Z,100.00
2022-10-17T09:09:46.775Z,100.00
2022-10-17T09:13:11.679Z,100.00
2022-10-17T09:16:51.678Z,100.00
2022-10-17T09:20:16.850Z,100.00
2022-10-17T09:23:41.766Z,100.00
2022-10-17T09:26:59.186Z,100.00
2022-10-17T09:30:45.498Z,100.00
2022-10-17T09:34:02.927Z,100.00
2022-10-17T09:37:23.052Z,100.00
2022-10-17T09:40:42.343Z,100.00
2022-10-17T09:44:00.292Z,100.00
2022-10-17T09:47:35.870Z,100.00
2022-10-17T09:51:02.620Z,99.67
2022-10-17T09:54:17.605Z,98.68
2022-10-17T09:57:33.652Z,97.46
2022-10-17T10:00:52.848Z,96.70
2022-10-17T10:04:22.926Z,100.00
2022-10-17T10:07:41.812Z,96.20
2022-10-17T10:11:05.456Z,96.03
2022-10-17T10:14:28.887Z,89.55
2022-10-17T10:17:49.932Z,92.99
2022-10-17T10:21:17.868Z,91.43
2022-10-17T10:24:38.197Z,90.30
2022-10-17T10:27:58.252Z,86.50
2022-10-17T10:31:17.353Z,86.02
2022-10-17T10:34:36.715Z,88.44
2022-10-17T10:37:55.598Z,88.86
2022-10-17T10:41:15.461Z,88.81
2022-10-17T10:44:35.599Z,86.32
2022-10-17T10:48:01.211Z,88.21
2022-10-17T10:51:22.573Z,87.23
2022-10-17T10:54:43.594Z,85.01
2022-10-17T10:58:03.527Z,83.18
2022-10-17T11:01:25.776Z,81.86
2022-10-17T11:04:45.955Z,82.00
2022-10-17T11:08:08.027Z,81.18
2022-10-17T11:11:30.932Z,81.91
2022-10-17T11:14:55.659Z,81.63
2022-10-17T11:18:16.597Z,80.59
2022-10-17T11:25:02.432Z,83.76
2022-10-17T11:28:26.453Z,84.86
2022-10-17T11:31:47.594Z,85.97
2022-10-17T11:35:09.198Z,87.91
2022-10-17T11:38:33.385Z,84.56
2022-10-17T11:41:55.438Z,83.06
2022-10-17T11:45:17.031Z,80.98
2022-10-17T11:48:37.459Z,77.11
2022-10-17T11:52:01.968Z,73.05
2022-10-17T11:55:25.357Z,71.95
2022-10-17T11:58:47.504Z,72.20
2022-10-17T12:02:07.643Z,76.55
2022-10-17T12:05:31.926Z,78.79
2022-10-17T12:08:56.423Z,74.78
2022-10-17T12:12:14.453Z,78.09
2022-10-17T12:15:43.585Z,78.31
2022-10-17T12:19:07.190Z,79.22
2022-10-17T12:22:32.315Z,77.84
2022-10-17T12:26:01.468Z,74.55
2022-10-17T12:29:32.322Z,73.20
2022-10-17T12:33:07.717Z,74.89
2022-10-17T12:36:47.578Z,72.91
2022-10-17T12:40:03.909Z,71.18
2022-10-17T12:43:46.602Z,73.81
2022-10-17T12:47:22.598Z,73.20
2022-10-17T12:54:37.846Z,71.09
2022-10-17T12:57:54.873Z,73.55
2022-10-17T13:01:24.555Z,74.57
2022-10-17T13:04:34.912Z,72.41
2022-10-17T13:07:53.633Z,73.78
2022-10-17T13:11:10.543Z,72.34
2022-10-17T13:14:29.207Z,73.35
2022-10-17T13:17:45.367Z,75.01
2022-10-17T13:21:11.005Z,73.46
2022-10-17T13:24:39.457Z,72.80
2022-10-17T13:27:56.933Z,72.64
2022-10-17T13:31:13.309Z,72.24
2022-10-17T13:34:31.689Z,72.37
2022-10-17T13:37:53.913Z,72.44
2022-10-17T13:41:34.187Z,73.04
2022-10-17T13:44:33.391Z,73.29
2022-10-17T13:47:49.811Z,73.33
2022-10-17T13:51:11.116Z,73.17
2022-10-17T13:54:43.898Z,73.67
2022-10-17T13:58:00.166Z,73.10
2022-10-17T14:01:17.093Z,73.21
2022-10-17T14:04:56.620Z,74.23
2022-10-17T14:08:16.648Z,74.24
2022-10-17T14:11:26.897Z,74.16
2022-10-17T14:15:08.817Z,74.30
2022-10-17T14:18:10.141Z,74.62
2022-10-17T14:21:43.249Z,74.70
2022-10-17T14:24:51.334Z,73.85
2022-10-17T14:28:19.252Z,75.11
2022-10-17T14:31:41.794Z,78.74
2022-10-17T14:35:24.358Z,75.80
2022-10-17T14:38:25.225Z,78.59
2022-10-17T14:41:44.255Z,78.40
2022-10-17T14:45:06.913Z,79.79
2022-10-17T14:48:32.659Z,78.93
2022-10-17T14:51:56.784Z,81.03
2022-10-17T14:55:21.451Z,82.76
2022-10-17T14:58:39.547Z,83.99
2022-10-17T15:01:55.753Z,86.02
2022-10-17T15:05:13.571Z,87.51
2022-10-17T15:08:33.104Z,91.73
2022-10-17T15:11:49.242Z,91.98
2022-10-17T15:15:05.214Z,94.12
2022-10-17T15:18:24.057Z,94.91
2022-10-17T15:21:44.678Z,95.60
2022-10-17T15:24:58.558Z,96.32
2022-10-17T15:28:15.429Z,97.39
2022-10-17T15:31:33.162Z,98.30
2022-10-17T15:34:49.783Z,99.31
2022-10-17T15:38:06.552Z,100.00
2022-10-17T15:41:23.389Z,100.00
2022-10-17T15:44:41.139Z,100.00
2022-10-17T15:48:01.293Z,100.00
2022-10-17T15:51:17.835Z,100.00
2022-10-17T15:54:33.938Z,100.00
2022-10-17T15:57:52.589Z,100.00
2022-10-17T16:01:09.496Z,100.00
2022-10-17T16:04:32.024Z,100.00
2022-10-17T16:07:49.045Z,100.00
2022-10-17T16:11:05.173Z,100.00
2022-10-17T16:14:23.411Z,100.00
2022-10-17T16:17:39.278Z,100.00
2022-10-17T16:20:55.660Z,100.00
2022-10-17T16:24:14.558Z,100.00
2022-10-17T16:27:30.472Z,100.00
2022-10-17T16:30:50.775Z,97.45
2022-10-17T16:34:09.676Z,94.99
2022-10-17T16:37:26.418Z,95.83
2022-10-17T16:40:48.057Z,100.00
2022-10-17T16:44:06.704Z,100.00
2022-10-17T16:47:23.368Z,100.00
2022-10-17T16:50:39.510Z,96.84
2022-10-17T16:57:12.947Z,93.34
2022-10-17T17:00:29.183Z,92.33
2022-10-17T17:03:47.766Z,91.89
2022-10-17T17:07:04.042Z,91.31
2022-10-17T17:10:20.431Z,90.94
2022-10-17T17:13:37.768Z,90.73
2022-10-17T17:16:54.051Z,90.25
2022-10-17T17:20:10.529Z,89.66
2022-10-17T17:23:29.701Z,89.35
2022-10-17T17:26:43.755Z,89.09
2022-10-17T17:30:01.941Z,88.80
2022-10-17T17:33:18.175Z,88.98
2022-10-17T17:36:39.583Z,88.50
2022-10-17T17:39:58.097Z,87.59
2022-10-17T17:43:14.233Z,90.58
2022-10-17T17:46:31.693Z,89.64
2022-10-17T17:49:47.842Z,90.93
2022-10-17T17:53:04.197Z,89.29
2022-10-17T17:56:23.601Z,88.40
2022-10-17T17:59:40.002Z,87.97
2022-10-17T18:02:56.934Z,87.20
2022-10-17T18:06:16.635Z,86.65
2022-10-17T18:09:32.865Z,86.67
2022-10-17T18:12:51.550Z,94.09
2022-10-17T18:16:11.147Z,95.07
2022-10-17T18:19:29.059Z,100.00
2022-10-17T18:22:45.257Z,100.00
2022-10-17T18:26:06.480Z,100.00
2022-10-17T18:29:24.878Z,100.00
2022-10-17T18:32:42.156Z,100.00
2022-10-17T18:36:02.366Z,100.00
2022-10-17T18:39:18.802Z,100.00
2022-10-17T18:42:34.965Z,100.00
2022-10-17T18:45:51.414Z,100.00
2022-10-17T18:49:08.205Z,100.00
2022-10-17T18:52:25.373Z,100.00
2022-10-17T18:59:03.951Z,100.00
2022-10-17T19:02:21.509Z,100.00
2022-10-17T19:05:39.754Z,100.00
2022-10-17T19:08:56.092Z,100.00
2022-10-17T19:12:13.515Z,100.00
2022-10-17T19:15:31.204Z,100.00
2022-10-17T19:18:49.412Z,100.00
2022-10-17T19:22:06.410Z,100.00
2022-10-17T19:25:23.062Z,100.00
2022-10-17T19:28:40.227Z,100.00
2022-10-17T19:31:57.220Z,100.00
2022-10-17T19:35:18.885Z,100.00
2022-10-17T19:41:52.948Z,100.00
2022-10-17T19:45:10.476Z,100.00
2022-10-17T19:48:27.461Z,100.00
2022-10-17T19:51:45.178Z,100.00
2022-10-17T19:58:17.541Z,100.00
2022-10-17T20:01:37.286Z,100.00
2022-10-17T20:05:13.794Z,100.00
2022-10-17T20:08:10.888Z,100.00
2022-10-17T20:11:33.070Z,100.00
2022-10-17T20:14:49.519Z,100.00
2022-10-17T20:18:05.959Z,100.00
2022-10-17T20:21:28.445Z,100.00
2022-10-17T20:24:44.643Z,100.00
2022-10-17T20:28:00.808Z,100.00
2022-10-17T20:31:18.418Z,100.00
2022-10-17T20:34:36.321Z,100.00
2022-10-17T20:37:53.928Z,100.00
2022-10-17T20:41:14.284Z,100.00
2022-10-17T20:44:30.408Z,100.00
2022-10-17T20:47:50.335Z,100.00
2022-10-17T20:51:04.485Z,100.00
2022-10-17T20:57:36.529Z,100.00
2022-10-17T21:00:53.120Z,100.00
2022-10-17T21:07:28.338Z,100.00
2022-10-17T21:10:45.264Z,100.00
2022-10-17T21:14:08.955Z,100.00
2022-10-17T21:17:25.039Z,100.00
2022-10-17T21:20:41.257Z,100.00
2022-10-17T21:27:14.524Z,100.00
2022-10-17T21:30:30.724Z,100.00
2022-10-17T21:33:47.646Z,100.00
2022-10-17T21:37:04.082Z,100.00
2022-10-17T21:43:35.565Z,100.00
2022-10-17T21:46:52.379Z,100.00
2022-10-17T21:50:09.289Z,100.00
2022-10-17T21:53:25.445Z,100.00
2022-10-17T21:56:42.107Z,100.00
2022-10-17T21:59:58.277Z,100.00
2022-10-17T22:03:15.833Z,100.00
2022-10-17T22:06:42.073Z,100.00
2022-10-17T22:13:07.513Z,100.00
2022-10-17T22:16:24.566Z,100.00
2022-10-17T22:19:40.996Z,100.00
2022-10-17T22:22:59.058Z,100.00
2022-10-17T22:29:30.692Z,100.00
2022-10-17T22:32:47.403Z,100.00
2022-10-17T22:36:03.299Z,100.00
2022-10-17T22:39:19.456Z,100.00
2022-10-17T22:42:36.270Z,100.00
2022-10-17T22:45:58.588Z,100.00
2022-10-17T22:49:14.791Z,100.00
2022-10-17T22:52:31.717Z,100.00
2022-10-17T22:55:49.020Z,100.00
2022-10-17T22:59:05.119Z,100.00
2022-10-17T23:02:22.868Z,100.00
2022-10-17T23:05:41.404Z,100.00
2022-10-17T23:08:57.899Z,100.00
2022-10-17T23:12:14.818Z,100.00
2022-10-17T23:15:30.996Z,100.00
2022-10-17T23:18:47.679Z,100.00
2022-10-17T23:22:03.744Z,100.00
2022-10-17T23:25:20.019Z,100.00
2022-10-17T23:28:36.167Z,100.00
2022-10-17T23:31:52.350Z,100.00
2022-10-17T23:35:08.429Z,100.00
2022-10-17T23:38:25.903Z,100.00
2022-10-17T23:41:41.650Z,100.00
2022-10-17T23:44:58.430Z,100.00
2022-10-17T23:48:16.348Z,100.00
2022-10-17T23:51:32.863Z,100.00
2022-10-17T23:58:04.597Z,100.00
